Tiempo atmosférico en la estación meteorológica de Ponferrada, León (534 m.)



Fecha
DESCASC
Temp. máxima en grados centígrados (hora)
DESCASC
Temp. mínima en grados centígrados (hora)
DESCASC
Temp. media en grados centígrados
DESCASC
Racha de viento máxima en m/sg (hora)
DESCASC
Velocidad máxima media en intervalos de 10 minutos(hora)
DESCASC
Precipitaciones diarias en mm
DESCASC
Precipitaciones de 00:00 a 06:00 en mm
DESCASC
Precipitaciones de 06:00 a 12:00 en mm
DESCASC
Precipitaciones de 12:00 a 18:00 en mm
DESCASC
Precipitaciones de 18:00 a 24:00 en mm
DESCASC
28-02-2021 19 (16:40) 1.3 (08:10) 10.1 8.61 (18:40) 4.72 (18:10) 0 0 0 0 0
27-02-2021 20.3 (17:50) 2.7 (08:20) 11.5 5.28 (21:00) 3.33 (20:50) 0 0 0 0 0
26-02-2021 18 (16:50) 4.4 (09:00) 11.2 6.11 (17:00) 3.33 (17:00) 0 0 0 0 0
25-02-2021 12.5 (00:20) 6.9 (00:00) 9.7 7.5 (05:30) 4.17 (04:50) 3.6 0.2 3.2 0.2 0
24-02-2021 18.7 (14:50) 1.8 (00:00) 10.3 9.72 (14:20) 4.17 (15:00) 0 0 0 0 0
23-02-2021 18.1 (16:20) -0.7 (-00:0) 8.7 7.78 (23:00) 4.72 (22:50) 0 0 0 0 0
22-02-2021 14.4 (17:30) -0.2 (00:00) 7.1 4.17 (14:00) 2.5 (20:30) 0 0 0 0 0
21-02-2021 11.7 (05:40) 4.1 (00:00) 7.9 10 (02:30) 4.72 (06:40) 9.2 0 9 0.2 0
20-02-2021 15.3 (14:40) 10.2 (00:00) 12.8 14.72 (10:00) 5.28 (10:00) 0.4 0 0 0.2 0.2
19-02-2021 15.3 (13:00) 5.8 (00:00) 10.6 10 (20:40) 4.72 (17:50) 0 0 0 0 0
18-02-2021 13.6 (04:50) 6.9 (00:00) 10.3 13.33 (04:40) 5.83 (04:50) 8 0 6 2 0
17-02-2021 13.4 (15:50) 2.1 (00:00) 7.7 4.17 (20:50) 1.94 (20:30) 0.4 0 0 0 0.4
16-02-2021 13.7 (17:50) 5.5 (00:00) 9.6 6.94 (11:20) 3.06 (11:20) 2.4 0 0.6 1.8 0
15-02-2021 19.5 (16:50) 2.2 (00:00) 10.9 8.61 (16:40) 3.89 (18:00) 0 0 0 0 0
14-02-2021 12.6 (17:10) 3.2 (00:00) 7.9 10.28 (17:50) 6.39 (17:50) 0 0 0 0 0
13-02-2021 12 (17:30) 3.9 (00:00) 8 3.33 (15:10) 1.67 (15:10) 0 0 0 0 0
12-02-2021 14.2 (17:20) 5.6 (00:00) 9.9 6.39 (13:10) 3.89 (13:10) 7.4 7.4 0 0 0
11-02-2021 13.6 (16:50) 6.3 (00:00) 10 3.89 (20:20) 1.94 (19:00) 11.6 0.8 0 0 10.8
10-02-2021 11.7 (15:10) 3.6 (00:00) 7.6 7.22 (13:30) 3.33 (14:10) 8.4 7.8 0 0 0.6
09-02-2021 9.3 (14:10) 5.2 (00:00) 7.3 9.72 (16:10) 5.28 (06:30) 22.8 1 17.8 0.6 3.4
08-02-2021 8.8 (17:40) 4 (00:00) 6.4 8.06 (21:40) 3.61 (13:10) 6.4 3.4 1.6 0.8 0.6
07-02-2021 4.4 (22:20) -1 (-00:0) 1.7 3.33 (23:20) 1.67 (23:20) 5.4 0 0 1.2 4.2
06-02-2021 9.3 (17:00) 2.8 (00:00) 6.1 6.11 (15:20) 2.78 (15:20) 9.2 5.8 3.4 0 0
05-02-2021 7.4 (15:00) 4.6 (00:00) 6 2.78 (04:00) 1.67 (06:30) 5.6 0 0 2.6 3
04-02-2021 9.2 (16:00) 5.9 (00:00) 7.5 5.28 (20:10) 3.06 (20:20) 0 0 0 0 0
03-02-2021 12.2 (14:30) 7.7 (00:00) 9.9 10.83 (04:10) 4.72 (04:10) 7 6 0 0 1
02-02-2021 12.9 (15:00) 10.1 (00:00) 11.5 6.67 (21:30) 4.17 (14:10) 15.4 0 1 6.8 7.6
01-02-2021 14.5 (14:20) 10.8 (00:00) 12.7 9.72 (09:20) 4.44 (14:50) 0 0 0 0 0
31-01-2021 15.8 (16:00) 7 (00:00) 11.4 14.44 (21:30) 6.11 (21:40) 4 1.4 2.4 0.2 0
30-01-2021 13.1 (00:00) 6.8 (00:00) 10 11.67 (07:40) 5.83 (16:50) 13.4 4.6 2.8 4 2

Gráficas

Temp. máximas Temp. mínimas Temp. medias Precipitaciones Rachas de viento máximas Velocidades máximas media en intervalos de 10 minutos

Datos horarios

Fecha y hora oficial Temperatura (ºC) Velocidad del viento (km/h) Dirección del viento Racha (km/h) Dirección de racha Precipitación (mm) Presión (hPa) Tendencia (hPa) Humedad (%)
2021-02-28 23:00:00 10.6 13 Este 26 Este 0 954 -- 54
2021-02-28 22:00:00 11 14 Este 25 Este 0 953.7 -- 48
2021-02-28 21:00:00 11.5 13 Este 26 Este 0 953.4 -- 46
2021-02-28 20:00:00 12.1 15 Este 28 Este 0 953.1 -- 45
2021-02-28 19:00:00 13.7 16 Sudeste 31 Sudeste 0 952.6 -- 38
2021-02-28 18:00:00 16.7 12 Este 23 Este 0 952.2 -- 32
2021-02-28 17:00:00 18.7 5 Sudoeste 12 Sudoeste 0 952.2 -- 26
2021-02-28 16:00:00 18.4 4 Sudoeste 11 Sudoeste 0 952.6 -- 27
2021-02-28 15:00:00 16.7 6 Sudoeste 13 Sudoeste 0 953.4 -- 34
2021-02-28 14:00:00 14.4 5 Oeste 12 Oeste 0 954.6 -- 46
2021-02-28 13:00:00 12 6 Oeste 12 Noroeste 0 955.9 -- 53
2021-02-28 12:00:00 9.6 4 Oeste 9 Oeste 0 957 -- 62
2021-02-28 11:00:00 6.9 6 Noroeste 10 Noroeste 0 957.5 -- 74
2021-02-28 10:00:00 5.7 2 Sur 5 Sur 0 958.2 -- 74
2021-02-28 09:00:00 2.9 0 Calma 6 Noroeste 0 958.3 -- 91
2021-02-28 08:00:00 1.4 0 Calma 4 Este 0 958.3 -- 90
2021-02-28 07:00:00 1.8 3 Este 4 Este 0 958.9 -- 88
2021-02-28 06:00:00 2.4 2 Nordeste 5 Este 0 959.1 -- 85
2021-02-28 05:00:00 2.9 0 Calma 4 Este 0 959.2 -- 84
2021-02-28 04:00:00 3.7 2 Nordeste 7 Sur 0 959.4 -- 80
2021-02-28 03:00:00 4.4 3 Este 7 Sudeste 0 959.9 -- 82
2021-02-28 02:00:00 5.5 2 Este 5 Este 0 960.1 -- 78
2021-02-28 01:00:00 6.8 0 Calma 5 Este 0 960.2 -- 73
2021-02-28 00:00:00 8.2 3 Este 5 Este 0 960.4 -- 71
2021-02-27 23:00:00 10.9 3 Sur 9 Este 0 960.3 -- 59
2021-02-27 22:00:00 12.5 4 Nordeste 13 Este 0 960.1 -- 51
2021-02-27 21:00:00 13.5 10 Este 19 Este 0 960 -- 44
2021-02-27 20:00:00 14.4 6 Sudeste 15 Este 0 959.8 -- 39
2021-02-27 19:00:00 18 5 Este 9 Sudeste 0 959.7 -- 41
2021-02-27 18:00:00 20.3 4 Oeste 9 Oeste 0 959.8 -- 36
2021-02-27 17:00:00 19.6 6 Oeste 10 Noroeste 0 960.2 -- 38
2021-02-27 16:00:00 19.2 5 Oeste 12 Sudoeste 0 960.9 -- 40
2021-02-27 15:00:00 17.5 4 Oeste 11 Oeste 0 961.7 -- 48
2021-02-27 14:00:00 14.8 4 Oeste 10 Oeste 0 963 -- 57
2021-02-27 13:00:00 12.6 5 Sudoeste 9 Sur 0 964.3 -- 64
2021-02-27 12:00:00 9.1 3 Oeste 7 Oeste 0 965.1 -- 77
2021-02-27 11:00:00 5.6 4 Oeste 8 Oeste 0 965.7 -- 94
2021-02-27 10:00:00 4.5 3 Oeste 6 Oeste 0 966 -- 94
2021-02-27 09:00:00 3.1 0 Calma 4 Norte 0 965.8 -- 96
2021-02-27 08:00:00 2.8 0 Calma 5 Sudeste 0 965.5 -- 95
2021-02-27 07:00:00 3.3 0 Calma 4 Este 0 965.4 -- 95
2021-02-27 06:00:00 3.8 0 Calma 3 Oeste 0 965.2 -- 93
2021-02-27 05:00:00 4.4 2 Sudeste 4 Este 0 965.3 -- 93
2021-02-27 04:00:00 5 0 Calma 3 Este 0 965.5 -- 91
2021-02-27 03:00:00 5.7 0 Calma 3 Nordeste 0 965.8 -- 89
2021-02-27 02:00:00 6.6 0 Calma 5 Oeste 0 966 -- 87
2021-02-27 01:00:00 7.7 4 Sudeste 6 Sudeste 0 965.9 -- 84
2021-02-27 00:00:00 9 3 Sur 7 Sur 0 965.9 -- 79
2021-02-26 23:00:00 10 3 Sudeste 9 Sudeste 0 966 -- 76
2021-02-26 22:00:00 11.1 0 Calma 8 Sur 0 965.5 -- 72
2021-02-26 21:00:00 12.1 3 Sur 8 Sudeste 0 965.2 -- 68
2021-02-26 20:00:00 12.4 5 Sudeste 9 Este 0 964.9 -- 67
2021-02-26 19:00:00 15.1 0 Calma 12 Sudeste 0 964.2 -- 57
2021-02-26 18:00:00 17 8 Sudeste 19 Sur 0 963.8 -- 42
2021-02-26 17:00:00 17.9 12 Sudeste 22 Sudeste 0 963.7 -- 40
2021-02-26 16:00:00 17.7 4 Oeste 9 Oeste 0 963.8 -- 52
2021-02-26 15:00:00 15.9 4 Oeste 10 Oeste 0 964.4 -- 61
2021-02-26 14:00:00 14.4 4 Oeste 9 Noroeste 0 965.4 -- 63
2021-02-26 13:00:00 11.6 3 Oeste 7 Oeste 0 966.6 -- 74
2021-02-26 12:00:00 8.2 4 Oeste 8 Noroeste 0 967.3 -- 90
2021-02-26 11:00:00 5.6 2 Sur 6 Sur 0 967.6 -- 100
2021-02-26 10:00:00 4.6 2 Nordeste 6 Norte 0 967.6 -- 99
2021-02-26 09:00:00 4.4 2 Nordeste 7 Sudeste 0 966.9 -- 99
2021-02-26 08:00:00 4.8 3 Sudeste 5 Sudeste 0 966.5 -- 99
2021-02-26 07:00:00 4.6 0 Calma 6 Noroeste 0 966.2 -- 98
2021-02-26 06:00:00 4.8 2 Este 4 Noroeste 0 966 -- 96
2021-02-26 05:00:00 5.6 2 Oeste 5 Nordeste 0 966.1 -- 97
2021-02-26 04:00:00 5.8 0 Calma 4 Nordeste 0 966.3 -- 97
2021-02-26 03:00:00 5.8 3 Sudoeste 5 Sudoeste 0 966.5 -- 97
2021-02-26 02:00:00 5.6 3 Sur 5 Sudeste 0 966.8 -- 97
2021-02-26 01:00:00 6.3 0 Calma 5 Norte 0 966.8 -- 94
2021-02-26 00:00:00 6.9 0 Calma 5 Este 0 966.8 -- 94
2021-02-25 23:00:00 7.6 4 Sudoeste 8 Nordeste 0 966.9 -- 95
2021-02-25 22:00:00 7.4 4 Este 6 Este 0 966.6 -- 92
2021-02-25 21:00:00 8.2 4 Este 5 Este 0 966.2 -- 91
2021-02-25 20:00:00 9 3 Este 4 Oeste 0 965.6 -- 89
2021-02-25 19:00:00 10 2 Oeste 5 Noroeste 0 965 -- 83
2021-02-25 18:00:00 10.1 3 Noroeste 7 Oeste 0 964.7 -- 81
2021-02-25 17:00:00 10.2 3 Sur 6 Noroeste 0.2 964.5 -- 82
2021-02-25 16:00:00 9.8 3 Este 9 Sudeste 0 964.4 -- 83
2021-02-25 15:00:00 9.7 4 Este 9 Norte 0 964.4 -- 81
2021-02-25 14:00:00 9 4 Nordeste 9 Nordeste 0 964.9 -- 84
2021-02-25 13:00:00 8.5 2 Oeste 7 Nordeste 0 965.4 -- 86
2021-02-25 12:00:00 7.9 3 Noroeste 9 Sur 0.4 965.5 -- 92
2021-02-25 11:00:00 7.7 0 Calma 5 Este 0.2 965 -- 91
2021-02-25 10:00:00 7.6 2 Sudeste 9 Noroeste 0.2 964.3 -- 90
2021-02-25 09:00:00 7.6 4 Oeste 9 Noroeste 1.6 963.8 -- 91
2021-02-25 08:00:00 7.7 2 Sur 19 Oeste 0.6 962.8 -- 83
2021-02-25 07:00:00 8.6 13 Oeste 24 Oeste 0.2 962.2 -- 76
2021-02-25 06:00:00 10.8 7 Sudoeste 27 Este 0 961.3 -- 80
2021-02-25 05:00:00 10.6 12 Este 24 Este 0.2 960.7 -- 79
2021-02-25 04:00:00 11.1 5 Sudeste 13 Noroeste 0 960.9 -- 75
2021-02-25 03:00:00 11.9 2 Sur 8 Sudoeste 0 961 -- 64
2021-02-25 02:00:00 12.3 5 Noroeste 10 Sudeste 0 961.4 -- 60
2021-02-25 01:00:00 12 3 Sudeste 6 Este 0 961.9 -- 64
2021-02-25 00:00:00 12.3 3 Sudeste 8 Este 0 962.2 -- 61
2021-02-24 23:00:00 12.6 5 Sudeste 10 Sudoeste 0 961.9 -- 59
2021-02-24 22:00:00 12.7 5 Sudeste 11 Sudeste 0 962 -- 58
2021-02-24 21:00:00 14.1 5 Sudeste 17 Sudoeste 0 962 -- 49
2021-02-24 20:00:00 15.2 9 Sudoeste 30 Sudoeste 0 962.1 -- 45
2021-02-24 19:00:00 15.9 8 Sur 19 Sudoeste 0 961.5 -- 42
2021-02-24 18:00:00 16.5 10 Sudoeste 24 Sudoeste 0 961.3 -- 40
2021-02-24 17:00:00 17.6 14 Sudoeste 35 Oeste 0 961.5 -- 38
2021-02-24 16:00:00 18.3 11 Oeste 30 Oeste 0 961.7 -- 37
2021-02-24 15:00:00 18.4 15 Sudoeste 35 Sudoeste 0 962.4 -- 35
2021-02-24 14:00:00 18.4 6 Sudoeste 17 Sur 0 962.9 -- 36
2021-02-24 13:00:00 15.5 7 Oeste 27 Este 0 963.9 -- 44
2021-02-24 12:00:00 11.7 5 Noroeste 17 Nordeste 0 964.4 -- 56
2021-02-24 11:00:00 8.2 4 Sudoeste 14 Sudoeste 0 965.1 -- 67
2021-02-24 10:00:00 6 3 Sudoeste 12 Oeste 0 966 -- 73
2021-02-24 09:00:00 3.1 4 Este 8 Sudoeste 0 966.2 -- 84
2021-02-24 08:00:00 2.1 4 Este 10 Este 0 966.2 -- 86
2021-02-24 07:00:00 2.4 5 Sudoeste 12 Sudoeste 0 966.1 -0.4 85
2021-02-24 06:00:00 2.8 3 Sudeste 8 Nordeste 0 966.3 -0.4 82
2021-02-24 05:00:00 3.4 2 Sudeste 12 Oeste 0 966.4 -- 79
2021-02-24 04:00:00 3.6 3 Sur 7 Sur 0 966.5 -- 78
2021-02-24 03:00:00 4.2 3 Sur 8 Este 0 966.7 -- 77
2021-02-24 02:00:00 5.4 5 Sudeste 10 Sudeste 0 966.7 0.4 73
2021-02-24 01:00:00 6.7 3 Sudeste 8 Este 0 966.8 -- 67
2021-02-24 00:00:00 9.4 3 Sudoeste 26 Este 0 966.5 -- 54
2021-02-23 23:00:00 10.7 16 Este 28 Este 0 966.3 -- 49
2021-02-23 22:00:00 11.1 13 Este 27 Este 0 966.5 -- 51
2021-02-23 21:00:00 11.9 13 Este 23 Este 0 966.2 1.3 52
2021-02-23 20:00:00 13.1 13 Este 24 Este 0 965.9 -- 50
2021-02-23 19:00:00 15.4 8 Sudeste 16 Sudeste 0 965.3 -- 46
2021-02-23 18:00:00 16.4 5 Sur 18 Sudeste 0 964.9 -- 43
2021-02-23 17:00:00 17.2 8 Sur 16 Sur 0 964.5 -- 41
2021-02-23 16:00:00 17.8 6 Oeste 15 Sudoeste 0 964.6 -- 39
2021-02-23 15:00:00 16.5 8 Oeste 15 Sudoeste 0 964.8 -- 46
2021-02-23 14:00:00 13.8 7 Oeste 13 Noroeste 0 965.1 -- 50
2021-02-23 13:00:00 10.5 5 Oeste 10 Oeste 0 966.1 -- 59
2021-02-23 12:00:00 7.6 4 Noroeste 10 Oeste 0 966.9 -- 64
2021-02-23 11:00:00 4.7 4 Oeste 10 Oeste 0 967 -- 74
2021-02-23 10:00:00 3.2 5 Sudoeste 8 Sudoeste 0 966.4 -- 76
2021-02-23 09:00:00 0.7 3 Sudeste 4 Nordeste 0 965.9 -- 92
2021-02-23 08:00:00 -0.6 2 Este 5 Este 0 964.9 -- 92
2021-02-23 07:00:00 -0.1 3 Nordeste 5 Nordeste 0 964.7 -- 89
2021-02-23 06:00:00 0 3 Sudeste 7 Nordeste 0 964.1 -- 88
2021-02-23 05:00:00 0.1 2 Sudeste 5 Nordeste 0 963.8 -- 88
2021-02-23 04:00:00 0.6 0 Calma 4 Norte 0 963.7 -- 87
2021-02-23 03:00:00 1 3 Este 3 Este 0 963.6 -- 84
2021-02-23 02:00:00 2 2 Este 4 Este 0 962.8 -- 80
2021-02-23 01:00:00 3.1 2 Este 9 Oeste 0 962.6 -- 74
2021-02-23 00:00:00 4 4 Este 10 Sudeste 0 962.1 -- 68
2021-02-22 23:00:00 5.4 4 Sur 8 Sudeste 0 961.7 -- 65
2021-02-22 22:00:00 6.7 3 Sur 10 Sudeste 0 960.7 -- 60
2021-02-22 21:00:00 7.8 7 Sudeste 13 Sudeste 0 959.6 -- 54
2021-02-22 20:00:00 8.4 5 Sudeste 12 Sudeste 0 959.1 -- 51
2021-02-22 19:00:00 10.8 3 Este 8 Noroeste 0 958.2 -- 52
2021-02-22 18:00:00 13.5 7 Oeste 12 Noroeste 0 957.6 -- 31
2021-02-22 17:00:00 14 3 Noroeste 11 Oeste 0 957.1 -- 24
2021-02-22 16:00:00 13.1 5 Oeste 12 Noroeste 0 956.8 -- 32
2021-02-22 15:00:00 12.1 5 Nordeste 12 Nordeste 0 957 -- 38
2021-02-22 14:00:00 10.6 7 Noroeste 15 Noroeste 0 957.3 -- 47
2021-02-22 13:00:00 9.3 4 Noroeste 10 Norte 0 957.5 -- 53
2021-02-22 12:00:00 7.7 4 Noroeste 9 Oeste 0 957.3 -- 61
2021-02-22 11:00:00 5.9 4 Oeste 7 Oeste 0 957.1 -- 72
2021-02-22 10:00:00 3.7 3 Oeste 5 Oeste 0 956.7 -- 84
2021-02-22 09:00:00 0.8 0 Calma 4 Sudeste 0 956 -- 97
2021-02-22 08:00:00 0.1 2 Este 4 Sudeste 0 955.2 -- 94
2021-02-22 07:00:00 0.5 3 Sudeste 6 Sur 0 954.4 1.9 96
2021-02-22 06:00:00 1 3 Sudeste 4 Sudeste 0 953.8 -- 94
2021-02-22 05:00:00 1.8 3 Nordeste 5 Noroeste 0 953 -- 91
2021-02-22 04:00:00 2.7 0 Calma 5 Norte 0 952.5 -- 89
2021-02-22 03:00:00 3.5 2 Norte 9 Noroeste 0 952.3 -- 85
2021-02-22 02:00:00 4.6 5 Oeste 14 Oeste 0 951.6 -- 81
2021-02-22 01:00:00 4.7 2 Oeste 10 Oeste 0 950.9 -- 82
2021-02-22 00:00:00 5.9 4 Oeste 17 Oeste 0 950.3 -- 78
2021-02-21 23:00:00 6.4 8 Oeste 16 Oeste 0 949.6 -- 79
2021-02-21 22:00:00 6.5 4 Oeste 13 Oeste 0 949 2.5 78
2021-02-21 21:00:00 6.8 6 Oeste 13 Noroeste 0 948.2 -- 79
2021-02-21 20:00:00 7.2 6 Oeste 16 Oeste 0 947.6 -- 77
2021-02-21 19:00:00 7.4 8 Oeste 25 Noroeste 0 946.5 -- 73
2021-02-21 18:00:00 7.7 12 Oeste 24 Oeste 0 945.5 -- 71
2021-02-21 17:00:00 7.6 8 Oeste 19 Oeste 0 945.1 -- 77
2021-02-21 16:00:00 7.7 11 Oeste 19 Oeste 0 944.6 -- 78
2021-02-21 15:00:00 8.3 5 Sudoeste 10 Sudoeste 0 944.2 -- 73
2021-02-21 14:00:00 7.3 4 Noroeste 16 Oeste 0 944.1 -- 77
2021-02-21 13:00:00 6.1 7 Oeste 17 Oeste 0.2 944.9 -- 87
2021-02-21 12:00:00 4.5 8 Oeste 27 Oeste 1.6 944.6 -- 88
2021-02-21 11:00:00 4.6 15 Oeste 33 Oeste 2.4 943.6 -- 88
2021-02-21 10:00:00 7.2 9 Oeste 17 Sudoeste 1.2 941.6 -- 93
2021-02-21 09:00:00 7.5 10 Este 18 Este 0.8 940.7 -- 85
2021-02-21 08:00:00 7.8 10 Este 31 Este 2.6 940.7 -- 83
2021-02-21 07:00:00 9 14 Este 34 Sudeste 0.4 940.4 -- 75
2021-02-21 06:00:00 11.5 8 Sudeste 28 Este 0 940.2 -- 51
2021-02-21 05:00:00 11.3 5 Este 30 Este 0 940.2 -- 50
2021-02-21 04:00:00 10.9 5 Nordeste 19 Este 0 940.8 -- 53
2021-02-21 03:00:00 11.1 8 Nordeste 36 Sudeste 0 942.2 -- 54
2021-02-21 02:00:00 11 14 Este 23 Este 0 942.2 -- 53
2021-02-21 01:00:00 10.7 10 Este 21 Este 0 943.7 -- 63
2021-02-21 00:00:00 11.5 8 Sudeste 21 Sudeste 0 944 -- 57
2021-02-20 23:00:00 11 6 Este 17 Sudeste 0 943.5 -- 63
2021-02-20 22:00:00 10.9 10 Este 19 Este 0 943.4 -- 65
2021-02-20 21:00:00 10.4 12 Este 23 Sudeste 0 943.3 -- 70
2021-02-20 20:00:00 10.6 5 Este 12 Sur 0.2 943.8 -- 76
2021-02-20 19:00:00 10.3 4 Norte 13 Norte 0 943.3 -- 85
2021-02-20 18:00:00 11.2 5 Noroeste 17 Este 0 943.2 -- 78
2021-02-20 17:00:00 11.9 5 Noroeste 12 Nordeste 0 942.8 -- 72
2021-02-20 16:00:00 13.1 6 Nordeste 22 Oeste 0 942.6 -- 66
2021-02-20 15:00:00 14.8 10 Sudoeste 30 Sudoeste 0 942.6 -- 49
2021-02-20 14:00:00 14.8 12 Sudoeste 34 Sudeste 0 943.1 -- 49
2021-02-20 13:00:00 14.5 10 Sur 41 Sudeste 0.2 943.8 -- 54
2021-02-20 12:00:00 13.4 13 Sur 41 Sur 0 944.1 -- 59
2021-02-20 11:00:00 13.8 17 Sur 44 Sudoeste 0 944.1 -- 55
2021-02-20 10:00:00 13.1 19 Sudeste 53 Sudeste 0 943.8 -- 56
2021-02-20 09:00:00 12.4 9 Sudeste 44 Este 0 944 -0.2 57
2021-02-20 08:00:00 12.5 12 Sudeste 36 Este 0 943.3 -- 53
2021-02-20 07:00:00 12.9 9 Sudeste 37 Sudeste 0 943.6 -- 52
2021-02-20 06:00:00 12.7 6 Sudeste 21 Sudeste 0 944.2 -- 55
2021-02-20 05:00:00 13 10 Sudeste 24 Sudeste 0 944.5 -- 53
2021-02-20 04:00:00 13.5 14 Sur 32 Sur 0 945.1 -1.3 54
2021-02-20 03:00:00 13.6 8 Oeste 21 Noroeste 0 945.6 -- 55
2021-02-20 02:00:00 13 5 Este 32 Sudoeste 0 946.1 -- 56
2021-02-20 01:00:00 13.4 13 Sudoeste 32 Sudoeste 0 946.4 -- 55
2021-02-20 00:00:00 13.3 12 Sudoeste 32 Sur 0 947 -- 57
2021-02-19 23:00:00 13.1 9 Sur 31 Sur 0 947.7 -1.4 57
2021-02-19 22:00:00 12.7 10 Sur 35 Sur 0 947.8 -- 59
2021-02-19 21:00:00 13.1 13 Sur 36 Sur 0 948.9 -- 58
2021-02-19 20:00:00 13.5 12 Sur 31 Sur 0 949.1 -- 56
2021-02-19 19:00:00 13.5 12 Sur 32 Sudoeste 0 948.1 -- 54
2021-02-19 18:00:00 14.1 14 Sudeste 32 Sudeste 0 948.5 -- 53
2021-02-19 17:00:00 14.4 10 Sudeste 21 Sudeste 0 949 -1.7 52
2021-02-19 16:00:00 14.3 5 Sur 22 Sur 0 949.8 -- 55
2021-02-19 15:00:00 14.1 6 Oeste 14 Norte 0 950.3 -- 60
2021-02-19 14:00:00 12.8 3 Noroeste 17 Oeste 0 950.7 -- 71
2021-02-19 13:00:00 15 9 Oeste 24 Sudoeste 0 951 -- 61
2021-02-19 12:00:00 10.1 6 Sudeste 11 Oeste 0 951.2 -- 82
2021-02-19 11:00:00 8.7 5 Sur 12 Sur 0 951.6 -- 82
2021-02-19 10:00:00 7 6 Sudeste 10 Sur 0 952.1 -- 87
2021-02-19 09:00:00 5.9 3 Sur 11 Sur 0 952.1 -- 89
2021-02-19 08:00:00 6.1 4 Sur 15 Sur 0 951.9 -- 87
2021-02-19 07:00:00 6.7 7 Sur 17 Sudeste 0 952.1 -- 84
2021-02-19 06:00:00 6.2 6 Sur 16 Sur 0 952.3 -- 87
2021-02-19 05:00:00 6.1 4 Sur 13 Sur 0 952.1 -- 88
2021-02-19 04:00:00 6.1 6 Sudoeste 13 Sudeste 0 952.6 -- 89
2021-02-19 03:00:00 7.1 7 Sur 15 Sur 0 952.6 -- 85
2021-02-19 02:00:00 7.4 13 Sudeste 20 Sur 0 953 -- 85
2021-02-19 01:00:00 7.2 8 Sudeste 14 Sudeste 0 953.7 -- 90
2021-02-19 00:00:00 6.9 3 Sudeste 6 Sur 0 953.8 -- 94
2021-02-18 23:00:00 7.6 3 Nordeste 5 Oeste 0 953.8 -- 93
2021-02-18 22:00:00 8.3 3 Sudeste 7 Nordeste 0 953.5 -- 91
2021-02-18 21:00:00 8.5 3 Nordeste 6 Nordeste 0 953.4 -- 90
2021-02-18 20:00:00 8.8 3 Nordeste 5 Este 0 953.4 -- 89
2021-02-18 19:00:00 10.1 0 Calma 9 Sudoeste 0 953 -- 84
2021-02-18 18:00:00 10.4 5 Oeste 15 Noroeste 0 952.8 -- 80
2021-02-18 17:00:00 10.7 4 Noroeste 18 Oeste 0 952.6 -- 82
2021-02-18 16:00:00 10.6 7 Oeste 22 Oeste 0.6 952.3 -- 83
2021-02-18 15:00:00 10.4 5 Oeste 12 Oeste 0.4 952.1 -- 81
2021-02-18 14:00:00 10 5 Oeste 17 Oeste 0.2 952.4 -- 85
2021-02-18 13:00:00 9.9 3 Sur 9 Noroeste 0.8 952.8 -- 85
2021-02-18 12:00:00 9 5 Noroeste 12 Oeste 1.6 952.4 -- 91
2021-02-18 11:00:00 9.1 2 Nordeste 8 Nordeste 0.6 951.4 -- 89
2021-02-18 10:00:00 8.8 3 Nordeste 9 Noroeste 0.6 951.2 -- 89
2021-02-18 09:00:00 8.9 6 Oeste 23 Sudoeste 1.2 950.6 -- 83
2021-02-18 08:00:00 10.1 10 Oeste 28 Oeste 2 950.3 -- 83
2021-02-18 07:00:00 12.3 12 Oeste 25 Oeste 0 948.4 -- 62
2021-02-18 06:00:00 12.7 12 Oeste 44 Sudoeste 0 948.5 -- 60
2021-02-18 05:00:00 13.5 20 Sudoeste 48 Sudoeste 0 948.7 -- 54
2021-02-18 04:00:00 13.1 7 Oeste 30 Sudoeste 0 948.6 -- 57
2021-02-18 03:00:00 10.8 6 Sudoeste 26 Sudoeste 0 949.3 -- 78
2021-02-18 02:00:00 10.6 5 Sudeste 13 Sudeste 0 949.8 -- 84
2021-02-18 01:00:00 11.1 4 Este 12 Este 0 950.3 -- 81
2021-02-18 00:00:00 10.8 4 Nordeste 13 Nordeste 0 951.2 -- 87
2021-02-17 23:00:00 10.2 4 Este 10 Noroeste 0 951.4 -- 87
2021-02-17 22:00:00 10.5 4 Sur 15 Norte 0 951.6 -- 85
2021-02-17 21:00:00 10.5 7 Nordeste 15 Norte 0.4 951.9 -- 83
2021-02-17 20:00:00 11.1 3 Sudoeste 11 Sudeste 0 951.9 -- 78
2021-02-17 19:00:00 11.3 3 Sur 10 Este 0 952.3 -- 79
2021-02-17 18:00:00 11.9 2 Este 8 Sudeste 0 953.1 -- 79
2021-02-17 17:00:00 12.4 5 Sudeste 13 Noroeste 0 954 -- 74
2021-02-17 16:00:00 13.3 4 Oeste 9 Noroeste 0 954.6 -- 61
2021-02-17 15:00:00 12.8 4 Nordeste 8 Noroeste 0 955.6 -- 59
2021-02-17 14:00:00 11.2 3 Este 13 Sur 0 956.7 -- 66
2021-02-17 13:00:00 9.6 2 Este 10 Oeste 0 958 -- 77
2021-02-17 12:00:00 6.7 6 Oeste 10 Oeste 0 958.5 -- 85
2021-02-17 11:00:00 4.6 5 Oeste 11 Oeste 0 958.8 -- 93
2021-02-17 10:00:00 3.1 3 Sudoeste 5 Sudoeste 0 959 -- 95
2021-02-17 09:00:00 2.1 2 Sudeste 7 Este 0 959.3 -- 96
2021-02-17 08:00:00 2.2 3 Sudeste 7 Sudeste 0 959 -- 95
2021-02-17 07:00:00 3.2 3 Este 6 Oeste 0 959.6 -- 94
2021-02-17 06:00:00 3.9 3 Nordeste 6 Oeste 0 959.7 -- 95
2021-02-17 05:00:00 4 0 Calma 5 Oeste 0 960 -- 96
2021-02-17 04:00:00 4.2 2 Nordeste 5 Oeste 0 960.4 -- 95
2021-02-17 03:00:00 3.7 0 Calma 5 Noroeste 0 960.8 -- 95
2021-02-17 02:00:00 4.6 2 Noroeste 8 Sur 0 961.2 -- 94
2021-02-17 01:00:00 4.9 3 Sudeste 5 Sudeste 0 961.3 -- 92
2021-02-17 00:00:00 6.3 2 Oeste 8 Sur 0 961.6 -- 90
2021-02-16 23:00:00 6.7 4 Sur 9 Sudeste 0 961.4 -- 89
2021-02-16 22:00:00 7.8 3 Sudeste 8 Sur 0 961.3 -- 85
2021-02-16 21:00:00 8.8 3 Sudeste 6 Noroeste 0 961 -- 77
2021-02-16 20:00:00 10.7 3 Norte 11 Sudoeste 0 960.5 -- 72
2021-02-16 19:00:00 12.5 4 Sudoeste 10 Norte 0 960.2 -- 64
2021-02-16 18:00:00 13.6 5 Noroeste 14 Oeste 0 959.9 -- 67
2021-02-16 17:00:00 12.7 6 Oeste 15 Oeste 0 959.9 -- 74
2021-02-16 16:00:00 11.2 5 Sur 11 Sur 0.2 960.3 -- 84
2021-02-16 15:00:00 10.6 6 Sudeste 11 Sudeste 0.4 960.2 -- 91
2021-02-16 14:00:00 10.3 5 Este 14 Norte 1.2 960.4 -- 91
2021-02-16 13:00:00 10.8 8 Noroeste 17 Noroeste 0 960.7 -- 84
2021-02-16 12:00:00 10.4 6 Noroeste 25 Oeste 0.6 960.3 -- 85
2021-02-16 11:00:00 11 10 Noroeste 20 Noroeste 0 959.9 -- 78
2021-02-16 10:00:00 10 5 Noroeste 14 Sudoeste 0 958.8 -- 68
2021-02-16 09:00:00 9.5 4 Nordeste 13 Nordeste 0 958.5 -- 69
2021-02-16 08:00:00 9.8 5 Sudeste 14 Norte 0 958.3 -- 68
2021-02-16 07:00:00 8.7 5 Noroeste 13 Noroeste 0 958.5 -- 70
2021-02-16 06:00:00 7 5 Sudoeste 17 Sudoeste 0 957.9 -- 77
2021-02-16 05:00:00 5.6 3 Sudeste 9 Noroeste 0 958.5 -- 84
2021-02-16 04:00:00 5.9 3 Nordeste 10 Este 0 958.9 -- 83
2021-02-16 03:00:00 6.3 4 Norte 11 Este 0 959.4 -- 81
2021-02-16 02:00:00 6.5 4 Noroeste 8 Noroeste 0 959.9 -- 82
2021-02-16 01:00:00 8.3 3 Nordeste 10 Norte 0 960.1 -- 73
2021-02-16 00:00:00 9.5 2 Este 10 Este 0 960.3 -- 68
2021-02-15 23:00:00 12.4 7 Este 13 Este 0 960.4 -- 53
2021-02-15 22:00:00 13.3 5 Este 13 Sudeste 0 960.4 -- 51
2021-02-15 21:00:00 13.7 3 Este 17 Este 0 960.4 -- 52
2021-02-15 20:00:00 14.4 10 Este 19 Sudeste 0 960.6 -- 49
2021-02-15 19:00:00 15.6 7 Sudeste 24 Este 0 960.5 -- 48
2021-02-15 18:00:00 17 14 Este 25 Este 0 960.5 -- 47
2021-02-15 17:00:00 19.4 10 Sudeste 31 Sur 0 960.5 -- 36
2021-02-15 16:00:00 17.8 6 Este 25 Este 0 961.3 -- 49
2021-02-15 15:00:00 14.3 4 Oeste 14 Oeste 0 962.2 -- 66
2021-02-15 14:00:00 13.1 7 Oeste 14 Sudoeste 0 963.1 -- 70
2021-02-15 13:00:00 7.1 4 Oeste 8 Oeste 0 964.6 -- 93
2021-02-15 12:00:00 4.6 3 Oeste 8 Oeste 0 965.7 -- 100
2021-02-15 11:00:00 3.6 3 Oeste 7 Oeste 0 966.2 -- 100
2021-02-15 10:00:00 3.3 4 Noroeste 7 Noroeste 0 966 -- 100
2021-02-15 09:00:00 3.2 3 Sudeste 5 Sudeste 0 965.4 -- 100
2021-02-15 08:00:00 3 3 Oeste 9 Noroeste 0 964.8 -- 100
2021-02-15 07:00:00 2.3 3 Noroeste 6 Noroeste 0 964.4 -- 99
2021-02-15 06:00:00 2.7 0 Calma 7 Noroeste 0 964.5 -- 97
2021-02-15 05:00:00 3.7 3 Noroeste 8 Norte 0 964.5 -- 98
2021-02-15 04:00:00 3.5 0 Calma 4 Este 0 964.8 -- 98
2021-02-15 03:00:00 4.1 2 Sudoeste 6 Noroeste 0 964.5 -- 95
2021-02-15 02:00:00 4.6 3 Sudeste 6 Sudeste 0 964.4 -- 97
2021-02-15 01:00:00 5.3 2 Sudeste 5 Sudeste 0 964.3 -- 94
2021-02-15 00:00:00 6 3 Este 8 Sur 0 964.3 -- 94
2021-02-14 23:00:00 6.5 3 Norte 8 Sudeste 0 964.3 -- 94
2021-02-14 22:00:00 7.4 3 Sudeste 6 Este 0 964.1 -- 89
2021-02-14 21:00:00 9.1 3 Sudoeste 18 Sudeste 0 963.8 -- 83
2021-02-14 20:00:00 10.8 12 Este 33 Este 0 963.5 -- 77
2021-02-14 19:00:00 11.2 19 Este 34 Este 0 963 0.8 75
2021-02-14 18:00:00 12.1 23 Este 37 Este 0 962.4 -0.1 72
2021-02-14 17:00:00 12.5 20 Este 31 Nordeste 0 962.1 -- 71
2021-02-14 16:00:00 11 3 Sudoeste 10 Noroeste 0 962.2 -- 79
2021-02-14 15:00:00 10.3 4 Oeste 10 Noroeste 0 962.5 -- 83
2021-02-14 14:00:00 8.5 3 Oeste 8 Noroeste 0 963.2 -- 88
2021-02-14 13:00:00 6.2 4 Noroeste 10 Sudeste 0 964.2 -- 97
2021-02-14 12:00:00 5.1 6 Sudeste 10 Sudeste 0 964.6 -- 100
2021-02-14 11:00:00 4.1 3 Noroeste 6 Noroeste 0 964.5 -- 100
2021-02-14 10:00:00 3.6 0 Calma 5 Nordeste 0 964.5 -- 100
2021-02-14 09:00:00 3.5 4 Sudeste 8 Sudeste 0 964.3 -- 100
2021-02-14 08:00:00 3.6 2 Este 7 Sur 0 964 -- 100
2021-02-14 07:00:00 3.7 4 Sudeste 6 Este 0 963.7 -- 100
2021-02-14 06:00:00 3.2 5 Noroeste 9 Noroeste 0 963.7 -- 98
2021-02-14 05:00:00 3.5 3 Este 9 Sur 0 964 -- 97
2021-02-14 04:00:00 3.5 3 Sudeste 5 Sudeste 0 964.2 -- 97
2021-02-14 03:00:00 4 3 Este 6 Norte 0 964.1 -- 95
2021-02-14 02:00:00 4.9 2 Nordeste 10 Sur 0 964 -- 96
2021-02-14 01:00:00 5.5 3 Sur 8 Sudeste 0 964.2 -- 95
2021-02-14 00:00:00 5.6 4 Sudeste 5 Sudeste 0 964.2 -- 96
2021-02-13 23:00:00 6.4 3 Este 4 Este 0 964.1 -- 93
2021-02-13 22:00:00 7.8 0 Calma 6 Noroeste 0 963.9 -- 89
2021-02-13 21:00:00 9.1 0 Calma 4 Este 0 964.2 -- 87
2021-02-13 20:00:00 9.7 2 Nordeste 5 Este 0 963.9 -- 86
2021-02-13 19:00:00 11.2 4 Oeste 9 Noroeste 0 963.3 -- 78
2021-02-13 18:00:00 11.9 0 Calma 6 Este 0 963.2 -- 74
2021-02-13 17:00:00 11.8 3 Sur 9 Sudeste 0 963.5 -- 71
2021-02-13 16:00:00 11.4 3 Sudoeste 12 Noroeste 0 963.5 -- 72
2021-02-13 15:00:00 11.3 6 Oeste 11 Oeste 0 963.3 -- 74
2021-02-13 14:00:00 10.2 2 Este 7 Sudoeste 0 963.2 -- 79
2021-02-13 13:00:00 8.7 3 Noroeste 5 Oeste 0 963.8 -- 86
2021-02-13 08:00:00 4.6 3 Sudoeste 5 Sudoeste 0 962.2 0.5 94
2021-02-13 07:00:00 4.2 2 Noroeste 8 Noroeste 0 962.4 0 95
2021-02-13 06:00:00 4.3 3 Sudeste 9 Sudeste 0 961.9 -0.1 94
2021-02-13 05:00:00 4.2 2 Sudoeste 6 Sudeste 0 961.7 0 95
2021-02-13 04:00:00 4.2 0 Calma 5 Este 0 962.4 0.7 95
2021-02-13 03:00:00 4.6 2 Sudoeste 7 Sudoeste 0 962 0.1 94
2021-02-13 02:00:00 5.3 4 Oeste 9 Sudeste 0 961.7 0 91
2021-02-13 01:00:00 5.2 4 Sur 9 Sudeste 0 961.7 0.3 94
2021-02-13 00:00:00 5.6 2 Sudeste 3 Sudeste 0 961.9 0.7 92
2021-02-12 23:00:00 6.4 0 Calma 6 Sudeste 0 961.7 0.7 89
2021-02-12 22:00:00 7 2 Este 8 Sur 0 961.4 1 87
2021-02-12 21:00:00 7.5 3 Sudeste 6 Sur 0 961.2 1.3 84
2021-02-12 20:00:00 9.1 2 Norte 6 Oeste 0 961 1.3 77
2021-02-12 19:00:00 11.6 2 Sudoeste 13 Oeste 0 960.4 0.9 66
2021-02-12 18:00:00 13.4 10 Oeste 20 Noroeste 0 959.9 0.1 57
2021-02-12 17:00:00 14.1 8 Oeste 22 Noroeste 0 959.7 -0.1 58
2021-02-12 16:00:00 13.4 6 Oeste 18 Sudoeste 0 959.5 0 62
2021-02-12 15:00:00 12.4 9 Oeste 18 Noroeste 0 959.8 0.9 67
2021-02-12 14:00:00 11.6 9 Oeste 23 Noroeste 0 959.8 1.3 72
2021-02-12 13:00:00 11.6 12 Oeste 22 Oeste 0 959.5 1.8 79
2021-02-12 12:00:00 10.8 7 Oeste 21 Sudoeste 0 958.9 2 82
2021-02-12 11:00:00 9.4 7 Noroeste 15 Oeste 0 958.5 2.6 88
2021-02-12 10:00:00 9 6 Oeste 21 Oeste 0 957.7 2.9 87
2021-02-12 09:00:00 8.4 7 Noroeste 19 Oeste 0 956.9 -- 91
2021-02-12 08:00:00 8.8 9 Oeste 21 Oeste 0 955.9 -- 88
2021-02-12 07:00:00 9 9 Oeste 22 Oeste 0 954.8 -- 85
2021-02-12 06:00:00 9.4 9 Oeste 22 Oeste 0.2 954 -- 85
2021-02-12 05:00:00 9.5 4 Noroeste 14 Noroeste 0.8 953.3 -- 93
2021-02-12 04:00:00 9.8 3 Norte 19 Oeste 2.4 952.8 -- 93
2021-02-12 03:00:00 10.1 2 Oeste 8 Nordeste 0 952.2 -- 95
2021-02-12 02:00:00 10.1 5 Sudeste 9 Sudeste 1 952.2 -- 99
2021-02-12 01:00:00 10.3 2 Nordeste 10 Norte 3 952 -- 98
2021-02-12 00:00:00 10.3 4 Sudeste 8 Sudeste 4.4 951.9 -- 98
2021-02-11 23:00:00 10.6 2 Este 5 Oeste 4 952 -- 97
2021-02-11 22:00:00 10.6 2 Norte 9 Oeste 0.4 951.8 -- 97
2021-02-11 21:00:00 10.9 4 Sudeste 14 Oeste 0 952.2 -- 95
2021-02-11 20:00:00 11 3 Este 12 Sudoeste 1.6 952.4 -- 96
2021-02-11 19:00:00 12 7 Oeste 13 Oeste 0.4 952.5 -- 92
2021-02-11 18:00:00 13.2 2 Este 6 Sudoeste 0 952.1 -- 84
2021-02-11 17:00:00 13.6 2 Sur 5 Oeste 0 952.5 -- 79
2021-02-11 16:00:00 12.8 2 Este 9 Oeste 0 953 -- 81
2021-02-11 15:00:00 12.1 4 Oeste 12 Noroeste 0 953.7 -- 81
2021-02-11 14:00:00 11.7 5 Noroeste 10 Noroeste 0 954.1 -- 81
2021-02-11 13:00:00 10.4 5 Noroeste 10 Oeste 0 954.8 -- 85
2021-02-11 12:00:00 9.4 3 Sudoeste 7 Noroeste 0 955.2 -- 89
2021-02-11 11:00:00 7.4 3 Noroeste 5 Noroeste 0 955.3 -- 95
2021-02-11 10:00:00 6.8 2 Noroeste 6 Noroeste 0 955.5 -- 97
2021-02-11 09:00:00 6.5 0 Calma 5 Sudoeste 0 955.1 -- 97
2021-02-11 08:00:00 6.4 2 Este 5 Este 0 954.4 -- 96
2021-02-11 07:00:00 6.3 0 Calma 5 Norte 0 954.4 -- 97
2021-02-11 06:00:00 6.3 0 Calma 4 Noroeste 0.4 954.4 -- 97
2021-02-11 05:00:00 6.4 0 Calma 4 Norte 0 954.4 -- 96
2021-02-11 04:00:00 6.3 2 Noroeste 7 Noroeste 0.2 954.5 -- 96
2021-02-11 03:00:00 6.6 3 Noroeste 6 Este 0.2 954.6 -- 93
2021-02-11 02:00:00 6.8 0 Calma 7 Sudeste 0 954.6 -- 91
2021-02-11 01:00:00 6.8 5 Sudeste 8 Sudeste 0 954.3 -- 89
2021-02-11 00:00:00 7 2 Sur 7 Sudeste 0.2 954.1 -- 89
2021-02-10 23:00:00 7 4 Este 8 Sudeste 0.2 953.8 -- 87
2021-02-10 22:00:00 7.5 3 Este 10 Sudeste 0.2 953.1 -- 86
2021-02-10 21:00:00 8.3 7 Sudeste 12 Sudeste 0 952.5 -- 68
2021-02-10 20:00:00 8.3 4 Sudeste 8 Sudeste 0 952.1 -- 72
2021-02-10 19:00:00 9.3 4 Sudeste 9 Este 0 951.3 -- 70
2021-02-10 18:00:00 10.6 3 Sudeste 8 Este 0 951 -- 65
2021-02-10 17:00:00 11.2 3 Nordeste 13 Nordeste 0 950.7 -- 57
2021-02-10 16:00:00 11.4 5 Norte 19 Noroeste 0 950.5 -- 55
2021-02-10 15:00:00 11.5 8 Noroeste 21 Sudoeste 0 950.6 -- 55
2021-02-10 14:00:00 9.6 8 Oeste 26 Oeste 0 950.7 -- 63
2021-02-10 13:00:00 8.7 10 Oeste 21 Oeste 0 950.3 -- 66
2021-02-10 12:00:00 7.6 10 Oeste 23 Sudoeste 0 949.4 -- 71
2021-02-10 11:00:00 7 9 Oeste 24 Oeste 0 948.7 -- 73
2021-02-10 10:00:00 5.9 6 Oeste 19 Oeste 0 948.2 -- 75
2021-02-10 09:00:00 5.3 6 Oeste 15 Oeste 0 947.2 -- 79
2021-02-10 08:00:00 5.2 9 Oeste 20 Oeste 0 945.7 -- 79
2021-02-10 07:00:00 4.8 6 Oeste 13 Oeste 0 944.5 -- 93
2021-02-10 06:00:00 4.7 5 Noroeste 8 Noroeste 0 942.9 -- 92
2021-02-10 05:00:00 4.1 0 Calma 8 Este 0 941.5 -- 94
2021-02-10 04:00:00 3.7 3 Sudeste 10 Norte 0.4 940.4 -- 95
2021-02-10 03:00:00 4.1 4 Noroeste 16 Sudoeste 0.6 939.5 -- 92
2021-02-10 02:00:00 4 5 Sudoeste 22 Noroeste 3.6 939.1 -- 89
2021-02-10 01:00:00 4.9 5 Noroeste 12 Noroeste 3.2 938.2 -- 91
2021-02-10 00:00:00 5.2 3 Nordeste 20 Sudoeste 1.2 937.3 -- 91
2021-02-09 23:00:00 5.7 8 Oeste 24 Oeste 1.2 937.9 -- 87
2021-02-09 22:00:00 5.3 4 Este 7 Sudeste 0 937.4 -- 93
2021-02-09 21:00:00 5.8 4 Noroeste 14 Sudoeste 0 937.5 -- 85
2021-02-09 20:00:00 5.3 4 Nordeste 16 Oeste 0.2 937.3 -- 91
2021-02-09 19:00:00 5.5 3 Sudoeste 20 Oeste 0.8 937.1 -- 88
2021-02-09 18:00:00 6.7 10 Oeste 23 Oeste 0.6 936.7 -- 81
2021-02-09 17:00:00 7.9 5 Noroeste 35 Noroeste 0 935.8 -- 72
2021-02-09 16:00:00 8.9 11 Oeste 30 Oeste 0 936.2 -- 65
2021-02-09 15:00:00 8 14 Sudoeste 30 Sudoeste 0 936.3 -- 76
2021-02-09 14:00:00 9.1 9 Oeste 27 Oeste 0 936.2 -- 73
2021-02-09 13:00:00 6.9 7 Oeste 15 Oeste 0 936.8 -- 87
2021-02-09 12:00:00 5.5 3 Norte 23 Sur 0.4 936.8 -- 91
2021-02-09 11:00:00 5.6 5 Sudoeste 26 Oeste 2.6 936.7 -- 89
2021-02-09 10:00:00 6.6 10 Oeste 22 Oeste 3.4 936.3 -- 92
2021-02-09 09:00:00 6.2 4 Sudeste 14 Este 5.6 935.2 -- 96
2021-02-09 08:00:00 6.4 14 Este 32 Este 4 935 -- 92
2021-02-09 07:00:00 6.4 19 Este 34 Este 1.8 935.4 -- 91
2021-02-09 06:00:00 6.5 17 Este 29 Este 0.2 936.3 -- 89
2021-02-09 05:00:00 6.4 6 Sudeste 13 Sudeste 0 937.8 -- 91
2021-02-09 04:00:00 6.4 2 Sur 7 Este 0 939.1 -- 93
2021-02-09 03:00:00 6.3 0 Calma 8 Nordeste 0.4 940.3 -- 94
2021-02-09 02:00:00 6.6 4 Sudoeste 8 Nordeste 0.4 941.1 -- 91
2021-02-09 01:00:00 7.1 2 Nordeste 6 Nordeste 0 941.8 -- 87
2021-02-09 00:00:00 7.5 3 Norte 11 Oeste 0 941.9 -- 85
2021-02-08 23:00:00 7.6 7 Oeste 15 Sudoeste 0 942.6 -- 84
2021-02-08 22:00:00 7.8 6 Oeste 29 Oeste 0 941.9 -- 87
2021-02-08 21:00:00 7.7 8 Oeste 14 Oeste 0 941.9 -- 90
2021-02-08 20:00:00 7.5 4 Nordeste 14 Noroeste 0 941.7 -- 93
2021-02-08 19:00:00 7.8 5 Noroeste 19 Noroeste 0.6 941.5 -- 89
2021-02-08 18:00:00 8.7 5 Noroeste 14 Oeste 0 941 -- 84
2021-02-08 17:00:00 8.5 8 Oeste 15 Noroeste 0.2 940.6 -- 85
2021-02-08 16:00:00 8 4 Noroeste 19 Oeste 0.2 939.7 -- 88
2021-02-08 15:00:00 7.8 11 Oeste 24 Noroeste 0 939.2 -- 82
2021-02-08 14:00:00 7 9 Oeste 24 Oeste 0 939.4 -- 86
2021-02-08 13:00:00 6.9 10 Oeste 28 Oeste 0.4 939.4 -- 90
2021-02-08 12:00:00 6.9 12 Oeste 27 Oeste 0.6 939.3 -- 84
2021-02-08 11:00:00 6.6 5 Noroeste 12 Oeste 0 939.1 -- 91
2021-02-08 10:00:00 5.7 2 Oeste 7 Oeste 0.4 938.8 -- 96
2021-02-08 09:00:00 5.2 4 Este 13 Sudoeste 0 938.1 -- 96
2021-02-08 08:00:00 5.2 4 Oeste 10 Oeste 0.6 937.7 -- 98
2021-02-08 07:00:00 4.8 3 Este 7 Este 0 937.6 -- 98
2021-02-08 06:00:00 4.7 2 Nordeste 5 Nordeste 0 937.6 -- 98
2021-02-08 05:00:00 4.4 3 Este 6 Este 0.6 937.8 -- 99
2021-02-08 04:00:00 4.2 3 Noroeste 8 Oeste 0.6 938.3 -- 99
2021-02-08 03:00:00 4.1 6 Sudeste 13 Sudeste 0 938.1 -- 99
2021-02-08 02:00:00 4.1 5 Oeste 15 Oeste 1.6 939 -- 99
2021-02-08 01:00:00 4.3 3 Noroeste 6 Sudeste 0.6 938.6 -- 98
2021-02-08 00:00:00 4.2 3 Sur 12 Sudoeste 2.2 939.6 -- 98
2021-02-07 23:00:00 4.2 3 Sudoeste 10 Noroeste 1.4 940.5 -- 98
2021-02-07 22:00:00 4.3 3 Oeste 7 Sudoeste 0 940.8 -- 98
2021-02-07 21:00:00 4.2 3 Oeste 9 Oeste 0.2 941.7 -- 97
2021-02-07 20:00:00 4.1 4 Oeste 6 Oeste 0.2 942.5 -- 97
2021-02-07 19:00:00 4.1 2 Noroeste 4 Noroeste 0.2 943.1 -- 95
2021-02-07 18:00:00 4.3 0 Calma 3 Oeste 0 943.6 -- 92
2021-02-07 17:00:00 4.2 2 Nordeste 4 Nordeste 0.2 944.3 -- 90
2021-02-07 16:00:00 4 3 Noroeste 6 Oeste 0.2 944.8 -- 89
2021-02-07 15:00:00 3.9 3 Noroeste 7 Noroeste 0.2 945.3 -- 89
2021-02-07 14:00:00 3.6 2 Noroeste 7 Noroeste 0.4 946.2 -- 89
2021-02-07 13:00:00 3 3 Oeste 8 Oeste 0.2 947 -- 89
2021-02-07 12:00:00 2.2 4 Oeste 6 Oeste 0 947.4 -- 92
2021-02-07 11:00:00 1.2 2 Noroeste 5 Oeste 0 947.6 -- 94
2021-02-07 10:00:00 0.3 3 Noroeste 5 Noroeste 0 947.6 -- 96
2021-02-07 09:00:00 -0.6 2 Sudeste 4 Nordeste 0 947.6 -- 97
2021-02-07 08:00:00 -0.7 4 Noroeste 9 Noroeste 0 947.5 -- 97
2021-02-07 07:00:00 -1 2 Sudeste 4 Sudeste 0 947.4 -- 97
2021-02-07 06:00:00 -0.9 0 Calma 3 Oeste 0 947.7 -- 96
2021-02-07 05:00:00 -0.9 0 Calma 4 Este 0 947.4 -- 95
2021-02-07 04:00:00 -0.4 0 Calma 4 Este 0 947.9 -- 94
2021-02-07 03:00:00 0 3 Este 5 Este 0 947.9 -- 93
2021-02-07 02:00:00 0.7 3 Este 5 Este 0 947.9 -- 91
2021-02-07 01:00:00 2.1 3 Sudeste 8 Oeste 0 948.2 -- 86
2021-02-07 00:00:00 2.8 2 Este 12 Oeste 0 948.1 -- 83
2021-02-06 23:00:00 4.4 4 Oeste 9 Sudoeste 0 947.8 -- 76
2021-02-06 22:00:00 4.8 3 Oeste 13 Oeste 0 947.6 -- 80
2021-02-06 21:00:00 5.2 6 Oeste 13 Oeste 0 946.9 -- 79
2021-02-06 20:00:00 5.5 7 Oeste 16 Oeste 0 946.4 -- 79
2021-02-06 19:00:00 7 5 Oeste 19 Noroeste 0 945.2 -- 76
2021-02-06 18:00:00 8.9 5 Noroeste 21 Oeste 0 944.5 -- 66
2021-02-06 17:00:00 9.3 9 Noroeste 19 Oeste 0 943.9 -- 72
2021-02-06 16:00:00 8.9 9 Oeste 22 Oeste 0 943.6 -- 77
2021-02-06 15:00:00 8.8 6 Oeste 18 Oeste 0 943.3 -- 81
2021-02-06 14:00:00 8.2 6 Oeste 11 Sudoeste 0 943.6 -- 85
2021-02-06 13:00:00 7 5 Sudoeste 10 Oeste 0 944 -- 91
2021-02-06 12:00:00 6.3 3 Sudoeste 7 Oeste 0.2 943.8 -- 92
2021-02-06 11:00:00 5.7 4 Sudoeste 7 Sudoeste 0.6 943.2 -- 95
2021-02-06 10:00:00 5.3 4 Sudeste 8 Sudeste 0.4 942.7 -- 96
2021-02-06 09:00:00 5.1 4 Sudeste 9 Sudeste 0.6 942.3 -- 95
2021-02-06 08:00:00 5.3 5 Sudeste 9 Sudeste 0.6 941.6 -- 94
2021-02-06 07:00:00 5.7 6 Sudeste 10 Sudeste 1 941 -- 95
2021-02-06 06:00:00 6.3 3 Sur 6 Sur 2.4 940.9 -- 98
2021-02-06 05:00:00 6.3 0 Calma 9 Sudoeste 1 940.5 -- 97
2021-02-06 04:00:00 6.4 0 Calma 5 Sudoeste 0.6 940.7 -- 96
2021-02-06 03:00:00 6.6 0 Calma 3 Norte 1 941 -- 97
2021-02-06 02:00:00 6.7 2 Este 4 Sudeste 0.4 941.2 -- 98
2021-02-06 01:00:00 6.8 3 Sudeste 9 Sudeste 0.4 941.5 -- 97
2021-02-06 00:00:00 6.9 2 Este 6 Oeste 0 941.7 -- 97
2021-02-05 23:00:00 6.9 5 Oeste 10 Oeste 0.4 941.9 -- 97
2021-02-05 22:00:00 7 3 Oeste 7 Noroeste 0.4 941.8 -- 98
2021-02-05 21:00:00 7.2 0 Calma 3 Noroeste 1 941.8 -- 97
2021-02-05 20:00:00 7.1 0 Calma 3 Oeste 0.8 941.9 -- 96
2021-02-05 19:00:00 7.1 0 Calma 7 Oeste 0.4 941.8 -- 96
2021-02-05 18:00:00 7.3 2 Noroeste 5 Noroeste 0.4 941.9 -- 95
2021-02-05 17:00:00 7.3 0 Calma 5 Noroeste 0.8 942.2 -- 94
2021-02-05 16:00:00 7.3 0 Calma 5 Noroeste 0.6 942.6 -- 92
2021-02-05 15:00:00 7.4 3 Noroeste 5 Noroeste 0.2 943.2 -- 91
2021-02-05 14:00:00 7.1 4 Sur 6 Sudeste 0 944.3 -- 91
2021-02-05 13:00:00 6.5 0 Calma 4 Norte 0.6 945.3 -- 91
2021-02-05 12:00:00 6 3 Oeste 8 Oeste 0 946 -- 92
2021-02-05 11:00:00 5.6 2 Oeste 9 Noroeste 0 946 -- 92
2021-02-05 10:00:00 5.1 4 Nordeste 9 Sudeste 0 946.3 -- 94
2021-02-05 09:00:00 4.8 6 Sudeste 10 Sudeste 0 946.3 -- 95
2021-02-05 08:00:00 4.8 0 Calma 5 Norte 0 946.5 -- 93
2021-02-05 07:00:00 5.1 2 Sudeste 9 Sur 0 946.7 -- 92
2021-02-05 06:00:00 4.8 2 Sudeste 9 Sudeste 0 947.2 -- 93
2021-02-05 05:00:00 5 4 Norte 10 Sur 0 947.4 -- 92
2021-02-05 04:00:00 4.7 6 Sur 10 Sur 0 947.8 -- 92
2021-02-05 03:00:00 4.9 2 Este 7 Este 0 947.5 -- 89
2021-02-05 02:00:00 5.7 0 Calma 8 Sudeste 0 947.9 -- 90
2021-02-05 01:00:00 6.1 0 Calma 5 Norte 0 948.2 -- 89
2021-02-05 00:00:00 5.9 0 Calma 5 Sudeste 0 948.4 -- 89
2021-02-04 23:00:00 6.5 2 Este 7 Sur 0 948.2 -- 86
2021-02-04 22:00:00 7.4 2 Sur 13 Este 0 948.2 -- 83
2021-02-04 21:00:00 7.9 8 Este 19 Este 0 947.5 -- 78
2021-02-04 20:00:00 8.1 10 Este 17 Este 0 947.5 -- 77
2021-02-04 19:00:00 8.3 9 Este 17 Este 0 947 -- 78
2021-02-04 18:00:00 8.8 0 Calma 8 Oeste 0 946.7 -- 83
2021-02-04 17:00:00 8.9 5 Oeste 10 Sudoeste 0 946.9 -- 84
2021-02-04 16:00:00 9.2 3 Nordeste 8 Este 0 946.6 -- 72
2021-02-04 15:00:00 8.6 2 Noroeste 5 Noroeste 0 946.6 -- 85
2021-02-04 14:00:00 8.3 2 Sudeste 8 Oeste 0 947.6 -- 85
2021-02-04 13:00:00 8.1 4 Oeste 8 Noroeste 0 948.3 -- 87
2021-02-04 12:00:00 7.3 4 Sudeste 10 Sudeste 0 948.1 -- 88
2021-02-04 11:00:00 6.8 3 Sur 6 Noroeste 0 948.4 -- 90
2021-02-04 10:00:00 6.6 0 Calma 6 Sur 0 948.2 -- 89
2021-02-04 09:00:00 6.5 0 Calma 6 Sur 0 947.7 -- 91
2021-02-04 08:00:00 6.7 6 Sudeste 12 Sudeste 0 947.8 -- 87
2021-02-04 07:00:00 6.6 5 Sur 13 Sudeste 0 947.5 -- 90
2021-02-04 06:00:00 7 6 Sudeste 11 Sur 0 947.7 -- 89
2021-02-04 05:00:00 7.1 5 Sudoeste 10 Sur 0 947.7 -- 91
2021-02-04 04:00:00 7.5 3 Sur 10 Sur 0 948 -- 86
2021-02-04 03:00:00 7.2 5 Sudeste 13 Sudeste 0 947.9 -- 88
2021-02-04 02:00:00 7.8 5 Sur 12 Sudeste 0 948 -- 85
2021-02-04 01:00:00 7.6 5 Este 14 Este 0 947.9 -- 84
2021-02-04 00:00:00 8.7 8 Oeste 18 Noroeste 0 947.9 -- 75
2021-02-03 23:00:00 9.1 13 Oeste 27 Oeste 0.2 948.3 -- 74
2021-02-03 22:00:00 8.7 4 Sudoeste 11 Sur 0.8 948.2 -- 83
2021-02-03 21:00:00 8.9 3 Sur 11 Sudeste 0 947.9 -- 85
2021-02-03 20:00:00 9.4 4 Sur 19 Sudeste 0 947.8 -- 79
2021-02-03 19:00:00 9.3 10 Este 18 Este 0 947.5 -- 80
2021-02-03 18:00:00 10.2 3 Sudoeste 15 Noroeste 0 947.5 -- 76
2021-02-03 17:00:00 9.8 5 Noroeste 22 Oeste 0 947.8 -- 80
2021-02-03 16:00:00 10.5 9 Noroeste 30 Oeste 0 948.1 -- 76
2021-02-03 15:00:00 11.8 13 Oeste 29 Oeste 0 948.4 -- 65
2021-02-03 14:00:00 11.9 13 Oeste 26 Oeste 0 948.5 -- 60
2021-02-03 13:00:00 11.6 10 Oeste 25 Oeste 0 948.9 -- 65
2021-02-03 12:00:00 10.5 11 Oeste 23 Sudoeste 0 949.4 -- 68
2021-02-03 11:00:00 9.2 3 Este 12 Oeste 0 949.1 -- 80
2021-02-03 10:00:00 9.1 7 Noroeste 20 Oeste 0 948.8 -- 74
2021-02-03 09:00:00 7.8 5 Sudeste 16 Oeste 0 947.9 -- 83
2021-02-03 08:00:00 8.1 3 Nordeste 9 Norte 0 947.4 -- 82
2021-02-03 07:00:00 9.1 6 Noroeste 20 Oeste 0 947.1 -- 82
2021-02-03 06:00:00 9.5 10 Oeste 23 Oeste 0.2 946.6 -- 84
2021-02-03 05:00:00 9.8 10 Oeste 39 Sudoeste 0.2 946 -- 85
2021-02-03 04:00:00 10.8 8 Oeste 25 Oeste 1.8 945.4 -- 92
2021-02-03 03:00:00 10.9 8 Oeste 23 Oeste 2.4 945.3 -- 93
2021-02-03 02:00:00 11.6 12 Oeste 23 Oeste 0.4 945.3 -- 87
2021-02-03 01:00:00 10.1 4 Este 8 Nordeste 1 945.2 -- 96
2021-02-03 00:00:00 10.1 3 Este 19 Este 1.2 945.3 -- 96
2021-02-02 23:00:00 10.3 7 Este 17 Este 1 945.4 -- 93
2021-02-02 22:00:00 10.4 5 Este 24 Este 2.2 946.4 -- 92
2021-02-02 21:00:00 10.5 12 Este 21 Este 1.6 947.5 -- 92
2021-02-02 20:00:00 10.4 5 Nordeste 8 Nordeste 1 948.1 -- 93
2021-02-02 19:00:00 10.9 4 Nordeste 13 Noroeste 0.6 948.5 -- 92
2021-02-02 18:00:00 11.5 8 Noroeste 17 Oeste 4.8 949.5 -- 94
2021-02-02 17:00:00 12.6 4 Noroeste 10 Este 0 947.9 -- 86
2021-02-02 16:00:00 12.4 3 Sudeste 13 Oeste 1 948.7 -- 90
2021-02-02 15:00:00 12.9 5 Sudoeste 23 Este 0 949.8 -- 81
2021-02-02 14:00:00 12.2 14 Este 23 Este 0.2 950.4 -- 86
2021-02-02 13:00:00 10.9 8 Sudeste 12 Sudeste 0.8 952.3 -- 90
2021-02-02 12:00:00 11.7 3 Oeste 11 Sudoeste 1 953.1 -- 82
2021-02-02 11:00:00 11.7 4 Oeste 12 Sur 0 951.8 -- 78
2021-02-02 10:00:00 10.8 2 Sudeste 13 Sudeste 0 952.5 -- 79
2021-02-02 09:00:00 10.4 5 Sudeste 15 Sudeste 0 952.2 -- 81
2021-02-02 08:00:00 10.1 3 Este 8 Sudeste 0 952.4 -- 82
2021-02-02 07:00:00 11.3 3 Oeste 12 Noroeste 0 951.7 -- 76
2021-02-02 06:00:00 12.2 8 Noroeste 17 Noroeste 0 952.4 -- 71
2021-02-02 05:00:00 11.4 4 Noroeste 10 Noroeste 0 952.5 -- 77
2021-02-02 04:00:00 12.1 4 Noroeste 9 Oeste 0 953.1 -- 78
2021-02-02 03:00:00 12.3 5 Oeste 18 Oeste 0 953.2 -- 79
2021-02-02 02:00:00 12.3 10 Oeste 20 Oeste 0 953.3 -- 79
2021-02-02 01:00:00 11.2 2 Sur 7 Sur 0 953.5 -- 89
2021-02-02 00:00:00 11.4 2 Sudeste 10 Norte 0 952.9 -- 87
2021-02-01 23:00:00 11.7 6 Nordeste 17 Nordeste 0 953.2 -- 86
2021-02-01 22:00:00 11.5 5 Nordeste 13 Nordeste 0 953 -- 88
2021-02-01 21:00:00 11.4 4 Nordeste 10 Noroeste 0 953.2 -- 88
2021-02-01 20:00:00 12.1 6 Oeste 14 Noroeste 0 953.8 -- 82
2021-02-01 19:00:00 12.9 9 Noroeste 17 Noroeste 0 953.4 -- 73
2021-02-01 18:00:00 13.5 8 Oeste 18 Oeste 0 953 -- 67
2021-02-01 17:00:00 14 8 Oeste 28 Noroeste 0 953.1 -- 64
2021-02-01 16:00:00 14.3 13 Oeste 31 Noroeste 0 953.3 -- 62
2021-02-01 15:00:00 14.4 14 Oeste 32 Oeste 0 953.7 -- 63
2021-02-01 14:00:00 13.9 10 Sudoeste 32 Oeste 0 954.3 -- 67
2021-02-01 13:00:00 14 13 Oeste 30 Oeste 0 954.2 -- 70
2021-02-01 12:00:00 13.4 13 Oeste 33 Oeste 0 954.3 -- 72
2021-02-01 11:00:00 11.8 9 Oeste 28 Sudoeste 0 953.9 -- 74
2021-02-01 10:00:00 11.2 11 Oeste 35 Noroeste 0 953.5 -- 76
2021-02-01 09:00:00 10.9 13 Oeste 29 Oeste 0 952.9 -- 76
2021-02-01 08:00:00 11 9 Oeste 32 Oeste 0 952.8 -- 76
2021-02-01 07:00:00 11 11 Oeste 28 Oeste 0 952.7 -- 77
2021-02-01 06:00:00 11.6 12 Oeste 27 Oeste 0 952.3 -- 72
2021-02-01 05:00:00 11.6 13 Oeste 26 Sudoeste 0 952.3 -- 71
2021-02-01 04:00:00 11.5 11 Oeste 23 Sudoeste 0 952.1 -- 71
2021-02-01 03:00:00 11.2 11 Oeste 23 Oeste 0 951.7 -- 72
2021-02-01 02:00:00 10.8 10 Oeste 23 Oeste 0 951.6 -- 76
2021-02-01 01:00:00 10.9 11 Oeste 27 Oeste 0 951.1 -- 75
2021-02-01 00:00:00 11.3 9 Oeste 39 Noroeste 0 950.8 -- 70
2021-01-31 23:00:00 11.9 17 Oeste 39 Noroeste 0 950.3 -- 64
2021-01-31 22:00:00 12.2 21 Oeste 52 Noroeste 0 949.8 -- 66
2021-01-31 21:00:00 11.9 12 Oeste 35 Oeste 0 948.9 -- 78
2021-01-31 20:00:00 12.1 15 Oeste 33 Oeste 0 948.7 -- 81
2021-01-31 19:00:00 12.6 14 Oeste 40 Noroeste 0 948.8 -- 77
2021-01-31 18:00:00 14.2 15 Oeste 45 Noroeste 0.2 948.7 -- 63
2021-01-31 17:00:00 15.4 14 Oeste 33 Oeste 0 948 -- 62
2021-01-31 16:00:00 15.8 12 Oeste 34 Sudoeste 0 948.7 -- 70
2021-01-31 15:00:00 15.2 14 Oeste 30 Sudoeste 0 949.4 -- 66
2021-01-31 14:00:00 14.8 9 Oeste 22 Oeste 0 950.4 -- 73
2021-01-31 13:00:00 12.8 8 Oeste 16 Oeste 0 951.2 -- 91
2021-01-31 12:00:00 9.8 3 Norte 6 Noroeste 0 951.3 -- 96
2021-01-31 11:00:00 8.6 3 Noroeste 8 Norte 0.2 951.2 -- 97
2021-01-31 10:00:00 7.8 2 Sudeste 5 Sur 0.6 951.1 -- 98
2021-01-31 09:00:00 7.5 4 Noroeste 8 Noroeste 0.8 951.2 -- 97
2021-01-31 08:00:00 7.5 2 Noroeste 13 Noroeste 0.6 951.4 -- 95
2021-01-31 07:00:00 7.3 5 Noroeste 12 Noroeste 0.2 951.8 -- 95
2021-01-31 06:00:00 7 3 Norte 15 Noroeste 0.2 952.3 -- 94
2021-01-31 05:00:00 7.5 5 Noroeste 10 Noroeste 0.6 952.4 -- 87
2021-01-31 04:00:00 7.7 7 Oeste 21 Oeste 0.2 952.8 -- 83
2021-01-31 03:00:00 8.1 11 Oeste 27 Oeste 0 953.1 -- 78
2021-01-31 02:00:00 8 13 Oeste 31 Noroeste 0 953.2 -- 80
2021-01-31 01:00:00 7.5 8 Oeste 24 Oeste 0.4 952.5 -- 84
2021-01-31 00:00:00 7.7 11 Oeste 24 Noroeste 0 952.4 -- 83
2021-01-30 23:00:00 7.6 12 Oeste 32 Oeste 0.4 952 -- 83
2021-01-30 22:00:00 7.3 9 Oeste 24 Sudoeste 0.4 951.5 -- 83
2021-01-30 21:00:00 7.3 12 Oeste 24 Oeste 0.6 951 -- 81
2021-01-30 20:00:00 7.8 10 Oeste 28 Noroeste 0 950.5 -- 77
2021-01-30 19:00:00 7.3 10 Oeste 27 Oeste 0.6 950.1 -- 79
2021-01-30 18:00:00 7.7 7 Oeste 23 Oeste 0 949.2 -- 80
2021-01-30 17:00:00 7.7 12 Oeste 41 Oeste 1.2 949.4 -- 81
2021-01-30 16:00:00 7.9 12 Oeste 33 Oeste 0.2 948.7 -- 84
2021-01-30 15:00:00 8.1 11 Oeste 35 Noroeste 0.8 948.7 -- 85
2021-01-30 14:00:00 7.5 12 Oeste 34 Oeste 0.8 949.2 -- 90
2021-01-30 13:00:00 7.4 9 Oeste 30 Oeste 1 949.4 -- 91
2021-01-30 12:00:00 7 14 Oeste 33 Oeste 1.8 949.8 -- 90
2021-01-30 11:00:00 7.6 12 Oeste 37 Oeste 0.2 949.7 -- 79
2021-01-30 10:00:00 7.6 8 Oeste 30 Noroeste 0 949.5 -- 80
2021-01-30 09:00:00 7.8 15 Oeste 28 Oeste 0.2 949.6 -- 81
2021-01-30 08:00:00 8 10 Oeste 42 Oeste 0.6 949 -- 86
2021-01-30 07:00:00 8.5 14 Oeste 35 Sudoeste 0 948.9 -- 82
2021-01-30 06:00:00 8.8 6 Sudoeste 23 Oeste 0 949.2 -- 79
2021-01-30 05:00:00 9.1 8 Oeste 23 Oeste 1 949.5 -- 86
2021-01-30 04:00:00 9.2 6 Oeste 14 Noroeste 0 949.2 -- 86
2021-01-30 03:00:00 9.3 8 Noroeste 19 Sudoeste 0 949.4 -- 89
2021-01-30 02:00:00 9.8 9 Oeste 27 Oeste 1.4 950.7 -- 82
2021-01-30 01:00:00 11.2 16 Oeste 34 Oeste 2.2 951.9 -- 85
2021-01-30 00:00:00 13.1 14 Oeste 37 Noroeste 0.4 950.8 -- 76